RYR37FE LIMJ-EBCI
Flight info
| Callsign | RYR37FE |
|---|---|
| Flight time | 1h 19m |
| Altitude | 34000 |
| Route | LAGEN DCT TONDA DCT PIMOT DCT AOSTA DCT ORSUD DCT MOLUS DCT GILIR DCT PENDU DCT IXILU DCT EPL DCT ROUSY DCT BATTY |
| Aircraft | B738/M-SDE2E3FGHIRWXY/LB1 |
Departure
| Time | 2026-04-24 12:01 |
|---|---|
| Airport | Genoa Cristoforo Colombo Airport (LIMJ) |
Arrival
| Time | 2026-04-24 13:21 |
|---|---|
| Airport | Brussels South Charleroi Airport (EBCI) |
| Time | Latitude | Longitude | Altitude | Speed | Heading |
|---|---|---|---|---|---|
| 2026-04-24 11:37 | 44.41404 | 8.85105 | 19 ft | 0 kts | 15° |
| 2026-04-24 11:54 | 44.41403 | 8.85104 | 19 ft | 1 kts | 15° |
| 2026-04-24 11:54 | 44.41380 | 8.85096 | 21 ft | 4 kts | 15° |
| 2026-04-24 11:54 | 44.41355 | 8.85086 | 23 ft | 4 kts | 22° |
| 2026-04-24 11:55 | 44.41338 | 8.85065 | 21 ft | 4 kts | 78° |
| 2026-04-24 11:55 | 44.41339 | 8.85035 | 19 ft | 2 kts | 105° |
| 2026-04-24 11:55 | 44.41345 | 8.85001 | 23 ft | 4 kts | 104° |
| 2026-04-24 11:55 | 44.41352 | 8.84965 | 20 ft | 4 kts | 103° |
| 2026-04-24 11:56 | 44.41356 | 8.84940 | 20 ft | 4 kts | 103° |
| 2026-04-24 11:56 | 44.41358 | 8.84925 | 23 ft | 1 kts | 103° |
| 2026-04-24 11:58 | 44.41350 | 8.84979 | 21 ft | 11 kts | 102° |
| 2026-04-24 11:58 | 44.41330 | 8.85089 | 20 ft | 12 kts | 105° |
| 2026-04-24 11:58 | 44.41309 | 8.85197 | 20 ft | 11 kts | 105° |
| 2026-04-24 11:58 | 44.41261 | 8.85278 | 20 ft | 11 kts | 154° |
| 2026-04-24 11:59 | 44.41186 | 8.85266 | 20 ft | 11 kts | 193° |
| 2026-04-24 11:59 | 44.41116 | 8.85241 | 21 ft | 14 kts | 197° |
| 2026-04-24 11:59 | 44.41023 | 8.85188 | 17 ft | 15 kts | 156° |
| 2026-04-24 11:59 | 44.40973 | 8.85355 | 19 ft | 26 kts | 105° |
| 2026-04-24 12:00 | 44.40925 | 8.85604 | 20 ft | 31 kts | 105° |
| 2026-04-24 12:00 | 44.40866 | 8.85906 | 23 ft | 31 kts | 104° |
| 2026-04-24 12:00 | 44.40856 | 8.86061 | 22 ft | 9 kts | 154° |
| 2026-04-24 12:00 | 44.40831 | 8.86031 | 21 ft | 6 kts | 291° |
| 2026-04-24 12:01 | 44.40854 | 8.85927 | 22 ft | 19 kts | 284° |
| 2026-04-24 12:01 | 44.40941 | 8.85480 | 19 ft | 87 kts | 285° |
| 2026-04-24 12:01 | 44.41159 | 8.84314 | 26 ft | 157 kts | 281° |
| 2026-04-24 12:01 | 44.41437 | 8.82747 | 625 ft | 173 kts | 282° |
| 2026-04-24 12:02 | 44.41750 | 8.81111 | 1543 ft | 174 kts | 282° |
| 2026-04-24 12:02 | 44.42071 | 8.79448 | 2371 ft | 179 kts | 280° |
| 2026-04-24 12:02 | 44.42232 | 8.77750 | 3227 ft | 169 kts | 255° |
| 2026-04-24 12:02 | 44.41721 | 8.76296 | 3727 ft | 178 kts | 220° |
| 2026-04-24 12:03 | 44.40598 | 8.75564 | 4389 ft | 182 kts | 187° |
| 2026-04-24 12:03 | 44.39356 | 8.75880 | 5038 ft | 191 kts | 158° |
| 2026-04-24 12:03 | 44.38158 | 8.76765 | 5595 ft | 200 kts | 160° |
| 2026-04-24 12:03 | 44.36757 | 8.76885 | 5776 ft | 211 kts | 195° |
| 2026-04-24 12:04 | 44.35258 | 8.76385 | 5974 ft | 233 kts | 194° |
| 2026-04-24 12:04 | 44.33622 | 8.75911 | 6302 ft | 249 kts | 193° |
| 2026-04-24 12:04 | 44.31837 | 8.75436 | 6600 ft | 270 kts | 192° |
| 2026-04-24 12:04 | 44.29956 | 8.74963 | 7230 ft | 277 kts | 192° |
| 2026-04-24 12:05 | 44.28058 | 8.74418 | 7920 ft | 281 kts | 202° |
| 2026-04-24 12:05 | 44.26421 | 8.72952 | 8539 ft | 283 kts | 229° |
| 2026-04-24 12:05 | 44.25456 | 8.70581 | 9188 ft | 285 kts | 258° |
| 2026-04-24 12:05 | 44.25395 | 8.67845 | 9854 ft | 285 kts | 285° |
| 2026-04-24 12:06 | 44.26256 | 8.65382 | 10462 ft | 287 kts | 310° |
| 2026-04-24 12:06 | 44.27731 | 8.63370 | 10641 ft | 308 kts | 321° |
| 2026-04-24 12:06 | 44.29438 | 8.61417 | 10950 ft | 324 kts | 322° |
| 2026-04-24 12:06 | 44.31214 | 8.59419 | 11518 ft | 331 kts | 322° |
| 2026-04-24 12:07 | 44.33011 | 8.57360 | 12125 ft | 337 kts | 322° |
| 2026-04-24 12:07 | 44.34800 | 8.55271 | 12768 ft | 342 kts | 322° |
| 2026-04-24 12:07 | 44.36624 | 8.53119 | 13542 ft | 344 kts | 322° |
| 2026-04-24 12:07 | 44.38525 | 8.51031 | 14151 ft | 350 kts | 329° |
| 2026-04-24 12:08 | 44.40676 | 8.49413 | 14768 ft | 353 kts | 339° |
| 2026-04-24 12:08 | 44.43013 | 8.48336 | 15390 ft | 357 kts | 346° |
| 2026-04-24 12:08 | 44.45443 | 8.47429 | 15949 ft | 364 kts | 348° |
| 2026-04-24 12:08 | 44.47898 | 8.46556 | 16698 ft | 366 kts | 348° |
| 2026-04-24 12:09 | 44.50396 | 8.45668 | 17283 ft | 373 kts | 348° |
| 2026-04-24 12:09 | 44.52934 | 8.44757 | 17861 ft | 379 kts | 348° |
| 2026-04-24 12:09 | 44.55510 | 8.43818 | 18504 ft | 384 kts | 348° |
| 2026-04-24 12:09 | 44.58104 | 8.42862 | 19089 ft | 387 kts | 348° |
| 2026-04-24 12:10 | 44.60713 | 8.41894 | 19727 ft | 388 kts | 348° |
| 2026-04-24 12:10 | 44.63333 | 8.40918 | 20323 ft | 391 kts | 348° |
| 2026-04-24 12:10 | 44.65905 | 8.39957 | 20908 ft | 394 kts | 348° |
| 2026-04-24 12:11 | 44.71280 | 8.37946 | 22043 ft | 401 kts | 348° |
| 2026-04-24 12:11 | 44.73989 | 8.36931 | 22608 ft | 404 kts | 348° |
| 2026-04-24 12:11 | 44.76714 | 8.35910 | 23158 ft | 407 kts | 348° |
| 2026-04-24 12:11 | 44.79458 | 8.34880 | 23690 ft | 410 kts | 348° |
| 2026-04-24 12:12 | 44.82227 | 8.33839 | 24126 ft | 413 kts | 348° |
| 2026-04-24 12:12 | 44.85014 | 8.32791 | 24568 ft | 416 kts | 348° |
| 2026-04-24 12:12 | 44.87813 | 8.31737 | 25015 ft | 418 kts | 348° |
| 2026-04-24 12:12 | 44.90634 | 8.30673 | 25466 ft | 420 kts | 348° |
| 2026-04-24 12:13 | 44.93466 | 8.29604 | 25898 ft | 422 kts | 348° |
| 2026-04-24 12:13 | 44.96316 | 8.28527 | 26307 ft | 425 kts | 348° |
| 2026-04-24 12:13 | 44.99188 | 8.27442 | 26723 ft | 428 kts | 348° |
| 2026-04-24 12:13 | 45.02070 | 8.26351 | 27113 ft | 430 kts | 348° |
| 2026-04-24 12:14 | 45.04972 | 8.25252 | 27515 ft | 433 kts | 348° |
| 2026-04-24 12:14 | 45.07884 | 8.24104 | 27897 ft | 437 kts | 344° |
| 2026-04-24 12:14 | 45.10691 | 8.22398 | 28267 ft | 442 kts | 334° |
| 2026-04-24 12:14 | 45.13311 | 8.20056 | 28639 ft | 448 kts | 324° |
| 2026-04-24 12:15 | 45.15684 | 8.17171 | 29029 ft | 451 kts | 320° |
| 2026-04-24 12:15 | 45.17967 | 8.14196 | 29492 ft | 451 kts | 319° |
| 2026-04-24 12:15 | 45.20256 | 8.11167 | 30053 ft | 449 kts | 319° |
| 2026-04-24 12:15 | 45.22530 | 8.08165 | 30529 ft | 447 kts | 319° |
| 2026-04-24 12:16 | 45.24819 | 8.05169 | 30923 ft | 446 kts | 319° |
| 2026-04-24 12:16 | 45.27100 | 8.02208 | 31287 ft | 446 kts | 320° |
| 2026-04-24 12:16 | 45.29402 | 7.99232 | 31681 ft | 445 kts | 320° |
| 2026-04-24 12:16 | 45.31690 | 7.96278 | 32096 ft | 444 kts | 319° |
| 2026-04-24 12:17 | 45.33975 | 7.93327 | 32494 ft | 443 kts | 319° |
| 2026-04-24 12:17 | 45.36254 | 7.90381 | 32871 ft | 442 kts | 319° |
| 2026-04-24 12:17 | 45.38533 | 7.87430 | 33239 ft | 442 kts | 319° |
| 2026-04-24 12:17 | 45.40804 | 7.84487 | 33622 ft | 441 kts | 319° |
| 2026-04-24 12:18 | 45.43041 | 7.81581 | 33990 ft | 440 kts | 319° |
| 2026-04-24 12:18 | 45.45309 | 7.78633 | 34118 ft | 443 kts | 319° |
| 2026-04-24 12:18 | 45.47592 | 7.75663 | 34125 ft | 444 kts | 319° |
| 2026-04-24 12:19 | 45.52155 | 7.69737 | 34112 ft | 440 kts | 319° |
| 2026-04-24 12:19 | 45.56708 | 7.63942 | 34134 ft | 438 kts | 320° |
| 2026-04-24 12:20 | 45.61263 | 7.58150 | 34148 ft | 438 kts | 319° |
| 2026-04-24 12:20 | 45.65785 | 7.52369 | 34135 ft | 439 kts | 319° |
| 2026-04-24 12:21 | 45.70351 | 7.46511 | 34155 ft | 440 kts | 319° |
| 2026-04-24 12:21 | 45.74914 | 7.40643 | 34172 ft | 441 kts | 319° |
| 2026-04-24 12:22 | 45.79483 | 7.34769 | 34160 ft | 442 kts | 320° |
| 2026-04-24 12:22 | 45.84442 | 7.29527 | 34177 ft | 443 kts | 326° |
| 2026-04-24 12:23 | 45.89538 | 7.24537 | 34151 ft | 444 kts | 326° |
| 2026-04-24 12:23 | 45.94560 | 7.19474 | 34173 ft | 443 kts | 325° |
| 2026-04-24 12:24 | 45.99584 | 7.14339 | 34179 ft | 443 kts | 324° |
| 2026-04-24 12:24 | 46.04595 | 7.09190 | 34172 ft | 443 kts | 325° |
| 2026-04-24 12:25 | 46.09609 | 7.04028 | 34179 ft | 443 kts | 324° |
| 2026-04-24 12:25 | 46.14628 | 6.98851 | 34155 ft | 443 kts | 324° |
| 2026-04-24 12:26 | 46.19646 | 6.93665 | 34164 ft | 443 kts | 324° |
| 2026-04-24 12:26 | 46.24613 | 6.88519 | 34166 ft | 442 kts | 324° |
| 2026-04-24 12:27 | 46.29613 | 6.83327 | 34185 ft | 442 kts | 324° |
| 2026-04-24 12:27 | 46.34606 | 6.78131 | 34182 ft | 442 kts | 324° |
| 2026-04-24 12:28 | 46.39601 | 6.72921 | 34176 ft | 442 kts | 324° |
| 2026-04-24 12:28 | 46.44617 | 6.67762 | 34176 ft | 442 kts | 328° |
| 2026-04-24 12:29 | 46.50095 | 6.63717 | 34194 ft | 442 kts | 335° |
| 2026-04-24 12:29 | 46.55588 | 6.59960 | 34196 ft | 442 kts | 334° |
| 2026-04-24 12:30 | 46.61155 | 6.56097 | 34194 ft | 443 kts | 334° |
| 2026-04-24 12:30 | 46.66718 | 6.52176 | 34180 ft | 444 kts | 334° |
| 2026-04-24 12:31 | 46.72285 | 6.48226 | 34187 ft | 445 kts | 334° |
| 2026-04-24 12:31 | 46.77864 | 6.44258 | 34185 ft | 447 kts | 334° |
| 2026-04-24 12:32 | 46.83426 | 6.40295 | 34187 ft | 448 kts | 334° |
| 2026-04-24 12:32 | 46.89038 | 6.36287 | 34175 ft | 448 kts | 333° |
| 2026-04-24 12:33 | 46.94643 | 6.32275 | 34175 ft | 449 kts | 333° |
| 2026-04-24 12:33 | 47.00252 | 6.28251 | 34192 ft | 449 kts | 333° |
| 2026-04-24 12:34 | 47.05860 | 6.24220 | 34189 ft | 449 kts | 333° |
| 2026-04-24 12:34 | 47.11471 | 6.20192 | 34168 ft | 449 kts | 333° |
| 2026-04-24 12:35 | 47.17080 | 6.16167 | 34170 ft | 449 kts | 333° |
| 2026-04-24 12:35 | 47.22628 | 6.12173 | 34184 ft | 448 kts | 333° |
| 2026-04-24 12:36 | 47.28197 | 6.08153 | 34176 ft | 448 kts | 333° |
| 2026-04-24 12:36 | 47.33895 | 6.04466 | 34170 ft | 448 kts | 344° |
| 2026-04-24 12:37 | 47.40049 | 6.03210 | 34175 ft | 447 kts | 1° |
| 2026-04-24 12:37 | 47.46265 | 6.03413 | 34180 ft | 447 kts | 2° |
| 2026-04-24 12:38 | 47.52486 | 6.03640 | 34174 ft | 448 kts | 1° |
| 2026-04-24 12:38 | 47.58715 | 6.03790 | 34172 ft | 448 kts | 1° |
| 2026-04-24 12:39 | 47.71187 | 6.04041 | 34182 ft | 448 kts | 1° |
| 2026-04-24 12:40 | 47.77429 | 6.04189 | 34181 ft | 448 kts | 1° |
| 2026-04-24 12:40 | 47.83666 | 6.04386 | 34182 ft | 448 kts | 1° |
| 2026-04-24 12:41 | 47.89880 | 6.04588 | 34196 ft | 448 kts | 1° |
| 2026-04-24 12:41 | 47.95834 | 6.04775 | 34179 ft | 448 kts | 1° |
| 2026-04-24 12:42 | 48.02085 | 6.04969 | 34205 ft | 454 kts | 1° |
| 2026-04-24 12:42 | 48.08442 | 6.05168 | 34208 ft | 465 kts | 1° |
| 2026-04-24 12:43 | 48.14953 | 6.05371 | 34209 ft | 469 kts | 1° |
| 2026-04-24 12:43 | 48.21491 | 6.05576 | 34204 ft | 469 kts | 1° |
| 2026-04-24 12:44 | 48.27945 | 6.05779 | 34201 ft | 460 kts | 1° |
| 2026-04-24 12:44 | 48.34357 | 6.05995 | 34228 ft | 461 kts | 1° |
| 2026-04-24 12:45 | 48.40791 | 6.06299 | 34216 ft | 463 kts | 2° |
| 2026-04-24 12:45 | 48.46155 | 6.06569 | 34208 ft | 464 kts | 2° |
| 2026-04-24 12:46 | 48.53673 | 6.06937 | 34218 ft | 465 kts | 1° |
| 2026-04-24 12:46 | 48.59091 | 6.07197 | 34224 ft | 465 kts | 1° |
| 2026-04-24 12:47 | 48.66610 | 6.07556 | 34225 ft | 465 kts | 1° |
| 2026-04-24 12:47 | 48.72028 | 6.07816 | 34204 ft | 465 kts | 1° |
| 2026-04-24 12:48 | 48.78488 | 6.08126 | 34211 ft | 464 kts | 1° |
| 2026-04-24 12:48 | 48.84937 | 6.08437 | 34202 ft | 463 kts | 1° |
| 2026-04-24 12:49 | 48.91366 | 6.08748 | 34225 ft | 462 kts | 1° |
| 2026-04-24 12:49 | 48.97787 | 6.09059 | 34208 ft | 461 kts | 1° |
| 2026-04-24 12:50 | 49.04158 | 6.09368 | 34229 ft | 460 kts | 1° |
| 2026-04-24 12:50 | 49.10573 | 6.09681 | 34211 ft | 460 kts | 1° |
| 2026-04-24 12:51 | 49.16980 | 6.09993 | 34210 ft | 461 kts | 1° |
| 2026-04-24 12:51 | 49.23385 | 6.10307 | 34223 ft | 461 kts | 1° |
| 2026-04-24 12:52 | 49.29812 | 6.10622 | 34222 ft | 461 kts | 1° |
| 2026-04-24 12:52 | 49.36199 | 6.10937 | 34210 ft | 462 kts | 0° |
| 2026-04-24 12:53 | 49.42631 | 6.11254 | 34230 ft | 462 kts | 0° |
| 2026-04-24 12:53 | 49.49061 | 6.11306 | 34200 ft | 461 kts | 352° |
| 2026-04-24 12:54 | 49.55405 | 6.09950 | 34214 ft | 460 kts | 349° |
| 2026-04-24 12:54 | 49.61727 | 6.08432 | 34215 ft | 460 kts | 349° |
| 2026-04-24 12:55 | 49.68072 | 6.06958 | 34215 ft | 461 kts | 349° |
| 2026-04-24 12:55 | 49.74406 | 6.05531 | 34218 ft | 461 kts | 349° |
| 2026-04-24 12:56 | 49.80754 | 6.04112 | 34214 ft | 461 kts | 349° |
| 2026-04-24 12:56 | 49.87107 | 6.02688 | 34228 ft | 460 kts | 349° |
| 2026-04-24 12:57 | 49.93405 | 6.01271 | 34229 ft | 460 kts | 349° |
| 2026-04-24 12:57 | 49.99737 | 5.99841 | 34229 ft | 460 kts | 349° |
| 2026-04-24 12:58 | 50.06072 | 5.98406 | 34227 ft | 460 kts | 349° |
| 2026-04-24 12:58 | 50.12403 | 5.96969 | 34232 ft | 460 kts | 349° |
| 2026-04-24 12:59 | 50.18746 | 5.95525 | 34056 ft | 463 kts | 349° |
| 2026-04-24 12:59 | 50.21621 | 5.94868 | 33752 ft | 462 kts | 349° |
| 2026-04-24 12:59 | 50.24796 | 5.94144 | 33335 ft | 460 kts | 349° |
| 2026-04-24 12:59 | 50.27958 | 5.93422 | 32946 ft | 458 kts | 349° |
| 2026-04-24 13:00 | 50.31116 | 5.92699 | 32543 ft | 460 kts | 349° |
| 2026-04-24 13:00 | 50.34289 | 5.91971 | 32129 ft | 460 kts | 349° |
| 2026-04-24 13:00 | 50.37457 | 5.91242 | 31714 ft | 461 kts | 349° |
| 2026-04-24 13:00 | 50.40636 | 5.90511 | 31313 ft | 461 kts | 349° |
| 2026-04-24 13:01 | 50.43814 | 5.89780 | 30903 ft | 462 kts | 349° |
| 2026-04-24 13:01 | 50.46993 | 5.89047 | 30471 ft | 462 kts | 349° |
| 2026-04-24 13:01 | 50.50174 | 5.88313 | 30004 ft | 462 kts | 349° |
| 2026-04-24 13:01 | 50.53350 | 5.87579 | 29534 ft | 462 kts | 349° |
| 2026-04-24 13:02 | 50.56525 | 5.86845 | 29105 ft | 461 kts | 349° |
| 2026-04-24 13:02 | 50.59699 | 5.86097 | 28680 ft | 461 kts | 347° |
| 2026-04-24 13:02 | 50.62709 | 5.84526 | 28217 ft | 454 kts | 328° |
| 2026-04-24 13:02 | 50.65263 | 5.81661 | 27833 ft | 452 kts | 314° |
| 2026-04-24 13:03 | 50.67272 | 5.77870 | 27353 ft | 450 kts | 298° |
| 2026-04-24 13:03 | 50.68744 | 5.73536 | 26924 ft | 448 kts | 294° |
| 2026-04-24 13:03 | 50.70124 | 5.69128 | 26450 ft | 448 kts | 293° |
| 2026-04-24 13:03 | 50.71488 | 5.64702 | 26008 ft | 449 kts | 293° |
| 2026-04-24 13:04 | 50.72860 | 5.60273 | 25563 ft | 449 kts | 293° |
| 2026-04-24 13:04 | 50.74248 | 5.55845 | 25108 ft | 450 kts | 294° |
| 2026-04-24 13:04 | 50.75623 | 5.51500 | 24659 ft | 448 kts | 294° |
| 2026-04-24 13:04 | 50.77019 | 5.47109 | 24219 ft | 449 kts | 294° |
| 2026-04-24 13:05 | 50.78412 | 5.42737 | 23718 ft | 441 kts | 294° |
| 2026-04-24 13:05 | 50.79778 | 5.38446 | 23209 ft | 432 kts | 294° |
| 2026-04-24 13:05 | 50.81116 | 5.34232 | 22770 ft | 424 kts | 294° |
| 2026-04-24 13:05 | 50.82424 | 5.30101 | 22317 ft | 417 kts | 294° |
| 2026-04-24 13:06 | 50.83715 | 5.26012 | 21890 ft | 416 kts | 294° |
| 2026-04-24 13:06 | 50.85006 | 5.21918 | 21465 ft | 414 kts | 294° |
| 2026-04-24 13:06 | 50.86282 | 5.17865 | 21051 ft | 408 kts | 294° |
| 2026-04-24 13:06 | 50.87462 | 5.13825 | 20629 ft | 401 kts | 287° |
| 2026-04-24 13:07 | 50.87968 | 5.09512 | 20150 ft | 398 kts | 273° |
| 2026-04-24 13:07 | 50.88148 | 5.05140 | 19710 ft | 397 kts | 272° |
| 2026-04-24 13:07 | 50.88303 | 5.00782 | 19268 ft | 394 kts | 272° |
| 2026-04-24 13:07 | 50.88461 | 4.96462 | 18803 ft | 391 kts | 272° |
| 2026-04-24 13:08 | 50.88628 | 4.92231 | 18216 ft | 390 kts | 273° |
| 2026-04-24 13:08 | 50.88804 | 4.87957 | 17667 ft | 386 kts | 273° |
| 2026-04-24 13:08 | 50.88978 | 4.83835 | 17541 ft | 364 kts | 273° |
| 2026-04-24 13:09 | 50.89309 | 4.76081 | 16457 ft | 348 kts | 273° |
| 2026-04-24 13:09 | 50.89471 | 4.72262 | 15692 ft | 348 kts | 273° |
| 2026-04-24 13:09 | 50.89632 | 4.68440 | 15336 ft | 336 kts | 274° |
| 2026-04-24 13:09 | 50.89784 | 4.64797 | 14836 ft | 329 kts | 274° |
| 2026-04-24 13:10 | 50.89932 | 4.61218 | 14177 ft | 330 kts | 274° |
| 2026-04-24 13:10 | 50.90032 | 4.57579 | 13495 ft | 329 kts | 266° |
| 2026-04-24 13:10 | 50.89449 | 4.54116 | 12865 ft | 327 kts | 243° |
| 2026-04-24 13:10 | 50.88116 | 4.51247 | 12285 ft | 324 kts | 223° |
| 2026-04-24 13:11 | 50.86365 | 4.49013 | 11688 ft | 323 kts | 217° |
| 2026-04-24 13:11 | 50.84558 | 4.46901 | 11121 ft | 321 kts | 217° |
| 2026-04-24 13:11 | 50.82795 | 4.44871 | 10965 ft | 306 kts | 217° |
| 2026-04-24 13:11 | 50.81109 | 4.42917 | 10686 ft | 298 kts | 217° |
| 2026-04-24 13:12 | 50.79445 | 4.40971 | 10197 ft | 299 kts | 217° |
| 2026-04-24 13:12 | 50.77781 | 4.39014 | 9689 ft | 297 kts | 217° |
| 2026-04-24 13:12 | 50.76143 | 4.37080 | 9272 ft | 294 kts | 217° |
| 2026-04-24 13:12 | 50.74510 | 4.35149 | 8929 ft | 290 kts | 217° |
| 2026-04-24 13:13 | 50.72909 | 4.33255 | 8629 ft | 287 kts | 217° |
| 2026-04-24 13:13 | 50.71308 | 4.31364 | 8338 ft | 287 kts | 217° |
| 2026-04-24 13:13 | 50.69691 | 4.29541 | 8032 ft | 284 kts | 208° |
| 2026-04-24 13:13 | 50.67828 | 4.28601 | 7734 ft | 280 kts | 190° |
| 2026-04-24 13:14 | 50.65913 | 4.28093 | 7429 ft | 279 kts | 188° |
| 2026-04-24 13:14 | 50.63973 | 4.27630 | 7107 ft | 283 kts | 187° |
| 2026-04-24 13:14 | 50.62023 | 4.27170 | 6775 ft | 286 kts | 187° |
| 2026-04-24 13:14 | 50.60045 | 4.26688 | 6377 ft | 289 kts | 188° |
| 2026-04-24 13:15 | 50.58067 | 4.26202 | 5993 ft | 286 kts | 188° |
| 2026-04-24 13:15 | 50.56118 | 4.25715 | 5676 ft | 280 kts | 187° |
| 2026-04-24 13:15 | 50.54198 | 4.25234 | 5309 ft | 279 kts | 188° |
| 2026-04-24 13:15 | 50.52292 | 4.24758 | 4981 ft | 275 kts | 188° |
| 2026-04-24 13:16 | 50.50438 | 4.24285 | 4695 ft | 270 kts | 188° |
| 2026-04-24 13:16 | 50.48605 | 4.23820 | 4331 ft | 262 kts | 187° |
| 2026-04-24 13:16 | 50.46843 | 4.23376 | 4036 ft | 252 kts | 187° |
| 2026-04-24 13:16 | 50.45148 | 4.22944 | 3733 ft | 240 kts | 187° |
| 2026-04-24 13:17 | 50.43534 | 4.22852 | 3451 ft | 226 kts | 163° |
| 2026-04-24 13:17 | 50.42221 | 4.23927 | 3277 ft | 206 kts | 133° |
| 2026-04-24 13:17 | 50.41443 | 4.25717 | 3101 ft | 197 kts | 109° |
| 2026-04-24 13:17 | 50.41207 | 4.27824 | 2792 ft | 196 kts | 86° |
| 2026-04-24 13:18 | 50.41492 | 4.29876 | 2539 ft | 191 kts | 65° |
| 2026-04-24 13:18 | 50.42031 | 4.31756 | 2284 ft | 184 kts | 63° |
| 2026-04-24 13:18 | 50.42558 | 4.33535 | 2101 ft | 175 kts | 64° |
| 2026-04-24 13:18 | 50.43058 | 4.35236 | 1827 ft | 169 kts | 62° |
| 2026-04-24 13:19 | 50.43526 | 4.36838 | 1659 ft | 152 kts | 63° |
| 2026-04-24 13:19 | 50.43943 | 4.38271 | 1468 ft | 135 kts | 63° |
| 2026-04-24 13:19 | 50.44336 | 4.39614 | 1264 ft | 137 kts | 63° |
| 2026-04-24 13:19 | 50.44731 | 4.40964 | 1083 ft | 138 kts | 64° |
| 2026-04-24 13:20 | 50.45148 | 4.42421 | 897 ft | 148 kts | 63° |
| 2026-04-24 13:20 | 50.45561 | 4.43833 | 662 ft | 137 kts | 63° |
| 2026-04-24 13:20 | 50.45939 | 4.45113 | 591 ft | 116 kts | 65° |
| 2026-04-24 13:20 | 50.46212 | 4.46053 | 591 ft | 73 kts | 65° |
| 2026-04-24 13:21 | 50.46359 | 4.46565 | 589 ft | 41 kts | 65° |
| 2026-04-24 13:21 | 50.46431 | 4.46809 | 593 ft | 18 kts | 65° |
| 2026-04-24 13:21 | 50.46503 | 4.46887 | 593 ft | 10 kts | 356° |
| 2026-04-24 13:21 | 50.46563 | 4.46855 | 593 ft | 9 kts | 337° |
| 2026-04-24 13:22 | 50.46624 | 4.46813 | 590 ft | 11 kts | 335° |
| 2026-04-24 13:22 | 50.46691 | 4.46837 | 588 ft | 11 kts | 54° |
| 2026-04-24 13:22 | 50.46708 | 4.46899 | 587 ft | 5 kts | 67° |
| 2026-04-24 13:22 | 50.46724 | 4.46952 | 587 ft | 6 kts | 66° |
| 2026-04-24 13:23 | 50.46741 | 4.47013 | 586 ft | 6 kts | 65° |
| 2026-04-24 13:23 | 50.46784 | 4.47025 | 583 ft | 9 kts | 341° |
| 2026-04-24 13:23 | 50.46831 | 4.46992 | 583 ft | 4 kts | 336° |
| 2026-04-24 13:23 | 50.46841 | 4.46985 | 584 ft | 0 kts | 336° |